Time;durP1;ratioP1;P1;durP2;ratioP2;P2;SDS_P1;SDS_P2;PMS_P1;PMS_P2;Temp;Humidity;BMP_temperature;BMP_pressure;BME280_temperature;BME280_humidity;BME280_pressure;Samples;Min_cycle;Max_cycle;Signal;HPM_P1;HPM_P2
2022/05/14 00:00:22;;;;;;;8.43;3.42;;;15.90;60.30;;;;;;5122467;27;20118;-65
2022/05/14 00:02:48;;;;;;;8.68;3.67;;;15.90;60.50;;;;;;5117411;28;20100;-64
2022/05/14 00:05:14;;;;;;;12.13;3.85;;;15.90;60.60;;;;;;5117852;27;20448;-64
2022/05/14 00:07:40;;;;;;;8.18;3.53;;;15.90;60.70;;;;;;5126749;27;20343;-64
2022/05/14 00:10:06;;;;;;;11.50;3.65;;;15.90;60.80;;;;;;5128852;27;20035;-64
2022/05/14 00:15:17;;;;;;;12.75;3.50;;;15.80;61.00;;;;;;5117352;27;20323;-64
2022/05/14 00:17:42;;;;;;;9.68;3.83;;;15.80;61.10;;;;;;5126731;27;20035;-64
2022/05/14 00:20:09;;;;;;;10.90;3.65;;;15.80;61.20;;;;;;5127869;27;20077;-64
2022/05/14 00:22:35;;;;;;;8.68;3.40;;;15.80;61.30;;;;;;5133844;27;20079;-64
2022/05/14 00:25:01;;;;;;;10.32;3.25;;;15.70;61.40;;;;;;5136088;27;20027;-64
2022/05/14 00:27:27;;;;;;;8.52;3.58;;;15.70;61.50;;;;;;5130066;27;20023;-64
2022/05/14 00:29:55;;;;;;;9.40;4.15;;;15.70;61.50;;;;;;5123723;27;20030;-65
2022/05/14 00:32:20;;;;;;;11.18;3.78;;;15.70;61.60;;;;;;5129341;27;20033;-65
2022/05/14 00:34:46;;;;;;;9.98;3.85;;;15.70;61.70;;;;;;5136374;27;20039;-64
2022/05/14 00:37:11;;;;;;;9.15;3.33;;;15.70;61.70;;;;;;5132821;27;20027;-64
2022/05/14 00:39:37;;;;;;;10.02;3.30;;;15.70;61.80;;;;;;5123745;27;20101;-64
2022/05/14 00:42:03;;;;;;;9.32;3.22;;;15.70;61.80;;;;;;5127400;27;20027;-65
2022/05/14 00:44:28;;;;;;;9.20;3.58;;;15.60;61.80;;;;;;5133521;27;20042;-64
2022/05/14 00:47:05;;;;;;;9.82;3.05;;;15.60;61.80;;;;;;5117475;27;20034;-64
2022/05/14 00:49:33;;;;;;;8.25;2.90;;;15.60;61.90;;;;;;5114516;27;20036;-64
2022/05/14 00:52:00;;;;;;;8.15;3.10;;;15.60;61.80;;;;;;5136513;27;20027;-64
2022/05/14 00:54:34;;;;;;;9.93;3.35;;;15.60;61.80;;;;;;5135038;27;20041;-64
2022/05/14 00:57:06;;;;;;;8.13;3.20;;;15.60;61.80;;;;;;5118492;27;20036;-64
2022/05/14 00:59:32;;;;;;;8.30;3.10;;;15.60;61.80;;;;;;5134088;27;20459;-65
2022/05/14 01:01:58;;;;;;;9.50;3.15;;;15.50;61.60;;;;;;5118312;27;20020;-64
2022/05/14 01:04:25;;;;;;;7.97;2.88;;;15.50;61.60;;;;;;5125024;27;20073;-65
2022/05/14 01:06:56;;;;;;;8.35;3.00;;;15.50;61.50;;;;;;5129627;27;20486;-64
2022/05/14 01:09:22;;;;;;;7.40;2.78;;;15.50;61.40;;;;;;5117615;27;20084;-64
2022/05/14 01:11:50;;;;;;;12.00;2.80;;;15.50;61.30;;;;;;5125927;27;20024;-65
2022/05/14 01:14:15;;;;;;;7.57;2.45;;;15.50;61.20;;;;;;5098766;28;20027;-64
2022/05/14 01:16:42;;;;;;;10.15;3.05;;;15.50;61.10;;;;;;5129106;27;20051;-64
2022/05/14 01:19:10;;;;;;;8.48;2.35;;;15.50;61.10;;;;;;5134157;27;20088;-65
2022/05/14 01:21:53;;;;;;;6.82;2.33;;;15.50;61.00;;;;;;5133072;27;20375;-64
2022/05/14 01:27:25;;;;;;;5.07;1.85;;;15.50;60.90;;;;;;5126103;27;20031;-64
2022/05/14 01:29:51;;;;;;;10.93;2.60;;;15.50;61.00;;;;;;5122420;27;20062;-64
2022/05/14 01:32:17;;;;;;;9.20;2.78;;;15.50;61.00;;;;;;5134498;27;20054;-64
2022/05/14 01:34:44;;;;;;;11.77;2.67;;;15.50;61.00;;;;;;5135833;27;20051;-65
2022/05/14 01:37:11;;;;;;;7.90;2.58;;;15.50;61.00;;;;;;5115083;27;20025;-64
2022/05/14 01:39:38;;;;;;;10.00;2.50;;;15.50;61.00;;;;;;5120812;27;20028;-64
2022/05/14 01:42:05;;;;;;;9.25;2.70;;;15.60;61.00;;;;;;5115052;27;20091;-64
2022/05/14 01:44:30;;;;;;;11.30;3.15;;;15.60;61.10;;;;;;5115408;27;20032;-64
2022/05/14 01:46:56;;;;;;;9.45;3.03;;;15.60;61.00;;;;;;5125061;27;20031;-64
2022/05/14 01:49:23;;;;;;;10.88;3.42;;;15.60;61.00;;;;;;5114774;27;20128;-64
2022/05/14 01:51:49;;;;;;;7.97;2.67;;;15.60;61.00;;;;;;5108691;27;20114;-64
2022/05/14 01:54:16;;;;;;;8.50;3.00;;;15.60;61.00;;;;;;5118121;28;20081;-64
2022/05/14 01:56:41;;;;;;;9.80;3.08;;;15.60;61.10;;;;;;5132170;27;20447;-64
2022/05/14 01:59:09;;;;;;;9.65;2.78;;;15.50;61.00;;;;;;5107518;27;20444;-64
2022/05/14 02:01:36;;;;;;;9.63;3.13;;;15.50;61.10;;;;;;5127473;27;20117;-64
2022/05/14 02:04:06;;;;;;;10.23;2.83;;;15.50;61.20;;;;;;5118460;27;20041;-64
2022/05/14 02:06:33;;;;;;;9.68;2.88;;;15.50;61.30;;;;;;5120464;27;20066;-64
2022/05/14 02:09:01;;;;;;;6.80;2.97;;;15.50;61.30;;;;;;5132951;27;20019;-64
2022/05/14 02:11:28;;;;;;;8.02;3.47;;;15.50;61.30;;;;;;5132560;27;20440;-64
2022/05/14 02:14:02;;;;;;;8.05;2.90;;;15.50;61.40;;;;;;5114656;28;20451;-64
2022/05/14 02:16:28;;;;;;;8.02;3.10;;;15.40;61.40;;;;;;5120830;27;20065;-64
2022/05/14 02:18:55;;;;;;;7.53;2.83;;;15.40;61.50;;;;;;5124157;27;20042;-65
2022/05/14 02:21:24;;;;;;;7.57;2.90;;;15.40;61.60;;;;;;5114640;27;20027;-64
2022/05/14 02:23:54;;;;;;;8.07;3.13;;;15.30;61.70;;;;;;5134632;27;20451;-64
2022/05/14 02:26:21;;;;;;;9.02;3.30;;;15.30;61.80;;;;;;5112432;27;20015;-64
2022/05/14 02:28:47;;;;;;;7.68;2.78;;;15.30;61.80;;;;;;5126467;27;20384;-64
2022/05/14 02:31:13;;;;;;;8.38;3.28;;;15.30;61.80;;;;;;5130121;27;20020;-64
2022/05/14 02:33:39;;;;;;;9.32;3.53;;;15.30;61.80;;;;;;5135858;27;20493;-64
2022/05/14 02:36:07;;;;;;;10.10;2.88;;;15.20;61.80;;;;;;5131798;27;20186;-64
2022/05/14 02:38:35;;;;;;;8.65;3.40;;;15.20;61.90;;;;;;5097521;28;20027;-64
2022/05/14 02:41:01;;;;;;;8.55;3.13;;;15.20;61.90;;;;;;5125918;27;20118;-64
2022/05/14 02:43:27;;;;;;;11.25;3.15;;;15.20;61.90;;;;;;5116457;27;20062;-64
2022/05/14 02:45:52;;;;;;;7.13;2.67;;;15.10;62.00;;;;;;5115102;28;20027;-64
2022/05/14 02:48:18;;;;;;;8.43;3.10;;;15.10;62.00;;;;;;5130135;27;20019;-64
2022/05/14 02:50:44;;;;;;;5.38;2.55;;;15.10;62.10;;;;;;5132323;27;20036;-64
2022/05/14 02:53:10;;;;;;;9.32;2.83;;;15.10;62.20;;;;;;5116246;27;20044;-64
2022/05/14 02:55:36;;;;;;;7.72;2.90;;;15.10;62.20;;;;;;5113594;27;20105;-64
2022/05/14 02:58:01;;;;;;;10.57;3.47;;;15.00;62.20;;;;;;5126448;27;20028;-64
2022/05/14 03:00:28;;;;;;;8.68;3.25;;;15.00;62.30;;;;;;5132351;27;20039;-64
2022/05/14 03:02:55;;;;;;;6.55;2.88;;;15.00;62.30;;;;;;5131438;27;20416;-64
2022/05/14 03:05:22;;;;;;;7.88;3.03;;;15.00;62.40;;;;;;5133907;27;20062;-65
2022/05/14 03:07:48;;;;;;;11.27;3.05;;;15.00;62.50;;;;;;5120369;27;20019;-64
2022/05/14 03:10:14;;;;;;;7.55;2.90;;;14.90;62.50;;;;;;5145741;27;20065;-64
2022/05/14 03:12:40;;;;;;;7.13;3.00;;;14.90;62.50;;;;;;5114596;28;20107;-64
2022/05/14 03:15:08;;;;;;;8.05;2.97;;;14.90;62.60;;;;;;5113663;28;20031;-64
2022/05/14 03:17:35;;;;;;;8.27;2.90;;;14.90;62.60;;;;;;5120666;27;20034;-64
2022/05/14 03:20:07;;;;;;;9.65;2.83;;;14.80;62.60;;;;;;5121852;28;20066;-64
2022/05/14 03:22:36;;;;;;;7.35;2.50;;;14.80;62.60;;;;;;5121693;27;20028;-64
2022/05/14 03:25:02;;;;;;;6.82;2.70;;;14.80;62.60;;;;;;5112298;28;20038;-64
2022/05/14 03:27:28;;;;;;;9.07;2.90;;;14.80;62.70;;;;;;5114497;28;20031;-64
2022/05/14 03:29:54;;;;;;;8.63;2.85;;;14.80;62.70;;;;;;5116443;28;20092;-64
2022/05/14 03:32:20;;;;;;;8.95;3.15;;;14.80;62.70;;;;;;5113496;28;20324;-64
2022/05/14 03:34:46;;;;;;;7.63;2.92;;;14.70;62.70;;;;;;5115326;28;20047;-64
2022/05/14 03:37:13;;;;;;;9.63;3.13;;;14.70;62.70;;;;;;5116457;28;20424;-64
2022/05/14 03:39:39;;;;;;;7.10;2.97;;;14.70;62.80;;;;;;5111828;28;20096;-64
2022/05/14 03:42:05;;;;;;;9.07;3.42;;;14.70;62.80;;;;;;5114629;28;20414;-64
2022/05/14 03:44:31;;;;;;;10.18;3.13;;;14.70;62.80;;;;;;5102038;28;20475;-64
2022/05/14 03:46:57;;;;;;;6.70;2.95;;;14.60;62.80;;;;;;5112141;28;20051;-64
2022/05/14 03:49:22;;;;;;;8.32;2.80;;;14.60;62.90;;;;;;5118621;28;20047;-64
2022/05/14 03:51:48;;;;;;;10.48;3.38;;;14.60;62.90;;;;;;5114942;28;20024;-64
2022/05/14 03:54:14;;;;;;;8.07;2.90;;;14.60;62.90;;;;;;5113535;28;20023;-64
2022/05/14 03:56:39;;;;;;;9.32;3.22;;;14.60;63.00;;;;;;5125021;28;20740;-64
2022/05/14 03:59:08;;;;;;;11.02;3.22;;;14.60;63.00;;;;;;5130727;27;20057;-64
2022/05/14 04:01:35;;;;;;;11.88;3.40;;;14.60;63.00;;;;;;5121986;27;20023;-64
2022/05/14 04:04:02;;;;;;;6.50;3.08;;;14.60;63.10;;;;;;5115391;28;20019;-64
2022/05/14 04:06:28;;;;;;;8.77;3.10;;;14.50;63.00;;;;;;5117843;28;20056;-64
2022/05/14 04:08:53;;;;;;;9.55;3.28;;;14.50;63.10;;;;;;5131212;28;20015;-64
2022/05/14 04:11:19;;;;;;;8.13;3.03;;;14.50;63.20;;;;;;5124132;28;20468;-64
2022/05/14 04:13:45;;;;;;;8.52;3.33;;;14.50;63.20;;;;;;5109731;28;20047;-64
2022/05/14 04:16:11;;;;;;;11.23;3.00;;;14.50;63.30;;;;;;5131831;28;20034;-64
2022/05/14 04:18:38;;;;;;;7.72;3.20;;;14.50;63.30;;;;;;5126917;27;20475;-64
2022/05/14 04:21:04;;;;;;;9.55;3.33;;;14.50;63.20;;;;;;5120101;27;20028;-64
2022/05/14 04:23:31;;;;;;;8.63;2.97;;;14.50;63.30;;;;;;5124165;27;20382;-64
2022/05/14 04:25:59;;;;;;;11.85;3.70;;;14.50;63.30;;;;;;5132901;27;20030;-64
2022/05/14 04:28:25;;;;;;;9.35;3.55;;;14.50;63.30;;;;;;5131603;27;20015;-64
2022/05/14 04:30:52;;;;;;;7.70;3.20;;;14.50;63.20;;;;;;5130760;27;20023;-64
2022/05/14 04:33:18;;;;;;;9.63;3.10;;;14.50;63.30;;;;;;5130877;27;20012;-64
2022/05/14 04:35:45;;;;;;;10.82;3.67;;;14.40;63.30;;;;;;5107661;27;20043;-64
2022/05/14 04:38:11;;;;;;;8.90;3.63;;;14.50;63.40;;;;;;5124563;27;20062;-64
2022/05/14 04:40:37;;;;;;;9.90;3.50;;;14.50;63.40;;;;;;5133001;27;20076;-65
2022/05/14 04:43:06;;;;;;;8.18;3.60;;;14.50;63.40;;;;;;5124062;27;20376;-65
2022/05/14 04:45:31;;;;;;;9.98;3.78;;;14.50;63.40;;;;;;5133629;27;20405;-65
2022/05/14 04:47:57;;;;;;;8.55;3.60;;;14.50;63.50;;;;;;5137658;27;20027;-65
2022/05/14 04:50:24;;;;;;;8.68;4.20;;;14.50;63.60;;;;;;5131608;27;20035;-66
2022/05/14 04:52:49;;;;;;;8.27;3.28;;;14.50;63.60;;;;;;5124624;27;20509;-64
2022/05/14 04:55:15;;;;;;;8.43;3.80;;;14.50;63.70;;;;;;5119131;27;20026;-64
2022/05/14 04:57:43;;;;;;;9.48;3.15;;;14.50;63.70;;;;;;5119743;27;20070;-64
2022/05/14 05:00:13;;;;;;;8.65;3.55;;;14.60;63.80;;;;;;5118845;27;20467;-64
2022/05/14 05:05:26;;;;;;;9.77;3.60;;;14.60;63.90;;;;;;5133196;27;20035;-64
2022/05/14 05:07:51;;;;;;;9.35;3.67;;;14.60;63.90;;;;;;5123301;27;20023;-64
2022/05/14 05:10:17;;;;;;;8.70;3.40;;;14.60;64.00;;;;;;5130815;27;20101;-64
2022/05/14 05:12:43;;;;;;;9.38;3.65;;;14.60;64.60;;;;;;5138004;27;20035;-64
2022/05/14 05:15:10;;;;;;;11.30;4.38;;;14.70;64.00;;;;;;5133825;27;20051;-65
2022/05/14 05:17:35;;;;;;;11.57;4.28;;;14.70;63.90;;;;;;5115880;28;20083;-64
2022/05/14 05:20:01;;;;;;;13.25;3.80;;;14.90;63.80;;;;;;5118270;27;20154;-64
2022/05/14 05:22:26;;;;;;;9.10;3.70;;;14.90;64.20;;;;;;5115485;27;20028;-64
2022/05/14 05:24:52;;;;;;;8.68;3.85;;;15.00;63.50;;;;;;5130516;27;20035;-64
2022/05/14 05:27:18;;;;;;;10.10;3.95;;;15.00;63.50;;;;;;5137083;27;20027;-64
2022/05/14 05:29:44;;;;;;;8.43;4.13;;;15.00;63.50;;;;;;5133563;27;20039;-64
2022/05/14 05:32:09;;;;;;;10.55;3.95;;;15.10;63.50;;;;;;5132737;27;20325;-64
2022/05/14 05:34:35;;;;;;;11.25;4.32;;;15.10;63.50;;;;;;5134251;27;20035;-64
2022/05/14 05:37:00;;;;;;;9.15;3.80;;;15.20;63.30;;;;;;5133195;27;20439;-64
2022/05/14 05:39:26;;;;;;;10.13;4.00;;;15.20;63.30;;;;;;5119598;27;20027;-64
2022/05/14 05:41:52;;;;;;;8.45;3.60;;;15.30;63.30;;;;;;5131360;27;20038;-64
2022/05/14 05:44:17;;;;;;;8.77;4.18;;;15.30;63.20;;;;;;5135528;27;20042;-64
2022/05/14 05:46:43;;;;;;;10.13;4.18;;;15.40;63.10;;;;;;5135133;27;20038;-63
2022/05/14 05:49:09;;;;;;;11.23;4.18;;;15.50;63.00;;;;;;5137211;27;20020;-64
2022/05/14 05:51:35;;;;;;;10.20;4.50;;;15.60;62.80;;;;;;5130515;27;20027;-64
2022/05/14 05:56:50;;;;;;;9.43;3.97;;;15.80;62.50;;;;;;5128957;27;20034;-64
2022/05/14 05:59:16;;;;;;;11.52;4.63;;;15.90;62.40;;;;;;5116041;27;20036;-64
2022/05/14 06:01:44;;;;;;;13.38;4.55;;;16.00;62.20;;;;;;5115081;28;20416;-64
2022/05/14 06:04:10;;;;;;;11.25;4.20;;;16.20;62.00;;;;;;5113353;28;20035;-64
2022/05/14 06:06:40;;;;;;;11.90;4.88;;;16.20;61.80;;;;;;5133120;27;20358;-64
2022/05/14 06:09:05;;;;;;;11.55;4.63;;;16.30;61.80;;;;;;5132709;27;20023;-64
2022/05/14 06:11:31;;;;;;;8.95;4.35;;;16.40;61.70;;;;;;5127652;27;20037;-64
2022/05/14 06:13:57;;;;;;;14.27;5.10;;;16.60;61.40;;;;;;5136616;27;20151;-64
2022/05/14 06:16:22;;;;;;;10.93;4.63;;;16.80;61.20;;;;;;5136572;27;20049;-64
2022/05/14 06:18:48;;;;;;;9.07;4.25;;;17.00;60.80;;;;;;5135424;27;20080;-64
2022/05/14 06:21:14;;;;;;;12.82;4.70;;;17.10;60.50;;;;;;5136707;27;20443;-64
2022/05/14 06:23:39;;;;;;;11.25;4.82;;;17.20;60.30;;;;;;5136378;27;20035;-64
2022/05/14 06:26:05;;;;;;;12.65;4.70;;;17.20;60.20;;;;;;5125365;27;20038;-63
2022/05/14 06:28:31;;;;;;;12.15;5.03;;;17.30;60.20;;;;;;5116775;27;20476;-63
2022/05/14 06:30:57;;;;;;;9.60;5.20;;;17.40;60.00;;;;;;5121618;27;20027;-62
2022/05/14 06:33:23;;;;;;;11.50;5.05;;;17.60;59.80;;;;;;5134528;27;20031;-63
2022/05/14 06:35:49;;;;;;;11.35;5.28;;;17.70;59.70;;;;;;5126503;27;20810;-62
2022/05/14 06:38:15;;;;;;;14.68;5.05;;;17.80;59.40;;;;;;5115490;28;20517;-62
2022/05/14 06:40:41;;;;;;;8.57;4.80;;;18.00;59.20;;;;;;5116276;27;20020;-62
2022/05/14 06:43:08;;;;;;;10.98;5.18;;;18.10;59.00;;;;;;5123320;27;20034;-63
2022/05/14 06:45:34;;;;;;;11.90;5.25;;;18.10;59.00;;;;;;5127609;27;20395;-63
2022/05/14 06:47:59;;;;;;;12.23;4.65;;;18.20;59.00;;;;;;5133902;27;20083;-62
2022/05/14 06:50:28;;;;;;;14.95;5.47;;;18.40;58.80;;;;;;5130850;27;20028;-63
2022/05/14 06:52:58;;;;;;;14.15;5.18;;;18.50;58.60;;;;;;5127566;27;20024;-63
2022/05/14 06:55:27;;;;;;;11.25;5.28;;;18.70;58.40;;;;;;5129736;27;20023;-63
2022/05/14 06:57:54;;;;;;;13.30;4.97;;;18.80;58.30;;;;;;5126493;27;20031;-62
2022/05/14 07:00:20;;;;;;;12.02;4.70;;;19.10;58.00;;;;;;5130967;27;20088;-63
2022/05/14 07:02:47;;;;;;;13.00;5.32;;;19.30;57.70;;;;;;5131106;27;20364;-64
2022/05/14 07:07:58;;;;;;;12.13;5.97;;;19.60;57.10;;;;;;5129775;27;20029;-64
2022/05/14 07:10:24;;;;;;;16.80;5.82;;;19.70;56.90;;;;;;5135072;27;20106;-63
2022/05/14 07:12:49;;;;;;;11.93;5.45;;;19.70;56.80;;;;;;5117622;28;20035;-64
2022/05/14 07:15:17;;;;;;;14.75;6.43;;;19.80;56.80;;;;;;5131870;27;20091;-63
2022/05/14 07:17:43;;;;;;;10.88;5.85;;;19.90;56.60;;;;;;5104016;28;20039;-63
2022/05/14 07:20:09;;;;;;;14.27;5.78;;;20.10;56.40;;;;;;5114053;28;20409;-63
2022/05/14 07:22:36;;;;;;;12.10;5.45;;;20.10;56.10;;;;;;5121634;28;20024;-63
2022/05/14 07:25:02;;;;;;;12.43;6.05;;;20.20;56.00;;;;;;5119782;28;20076;-64
2022/05/14 07:27:27;;;;;;;12.90;5.32;;;20.30;55.80;;;;;;5123577;27;20363;-64
2022/05/14 07:29:53;;;;;;;12.02;5.82;;;20.40;55.80;;;;;;5114941;28;20054;-63
2022/05/14 07:32:20;;;;;;;17.13;6.10;;;20.60;55.60;;;;;;5121199;28;20163;-63
2022/05/14 07:34:46;;;;;;;14.02;5.88;;;20.70;55.30;;;;;;5124226;28;20444;-63
2022/05/14 07:37:16;;;;;;;14.98;5.70;;;20.70;55.10;;;;;;5127509;27;20039;-63
2022/05/14 07:40:06;;;;;;;12.70;5.93;;;20.90;54.90;;;;;;5119014;28;20027;-63
2022/05/14 07:42:43;;;;;;;13.60;5.35;;;21.10;54.70;;;;;;5117208;28;20106;-63
2022/05/14 07:45:12;;;;;;;13.43;5.22;;;21.20;54.30;;;;;;5121772;27;20042;-63
2022/05/14 07:47:39;;;;;;;15.23;5.57;;;21.40;54.30;;;;;;5116762;28;20464;-63
2022/05/14 07:50:06;;;;;;;19.48;6.15;;;21.40;54.10;;;;;;5125098;27;20289;-63
2022/05/14 07:52:32;;;;;;;13.50;6.13;;;21.60;54.00;;;;;;5114945;27;20038;-63
2022/05/14 07:54:57;;;;;;;13.00;5.95;;;21.70;53.70;;;;;;5129230;27;20019;-64
2022/05/14 07:57:23;;;;;;;11.38;5.15;;;21.70;53.60;;;;;;5126916;27;20084;-63
2022/05/14 07:59:49;;;;;;;10.93;5.38;;;21.80;53.40;;;;;;5126448;27;20087;-64
2022/05/14 08:02:31;;;;;;;14.70;5.57;;;21.90;53.40;;;;;;5127242;27;20023;-65
2022/05/14 08:05:02;;;;;;;13.50;6.28;;;22.00;53.10;;;;;;5122527;27;20027;-63
2022/05/14 08:07:29;;;;;;;12.70;5.45;;;22.10;52.90;;;;;;5124134;27;20019;-64
2022/05/14 08:09:54;;;;;;;12.43;6.05;;;22.20;52.60;;;;;;5124554;27;20030;-63
2022/05/14 08:12:20;;;;;;;9.20;4.97;;;22.40;52.50;;;;;;5126179;27;20413;-63
2022/05/14 08:14:46;;;;;;;13.15;5.25;;;22.50;52.40;;;;;;5127308;27;20039;-64
2022/05/14 08:17:11;;;;;;;12.90;4.93;;;22.70;52.20;;;;;;5123511;27;20031;-64
2022/05/14 08:19:37;;;;;;;14.90;4.80;;;22.80;51.80;;;;;;5121838;27;20338;-64
2022/05/14 08:24:48;;;;;;;12.27;4.97;;;23.00;51.30;;;;;;5127409;27;20031;-64
2022/05/14 08:27:14;;;;;;;11.93;4.50;;;22.90;51.30;;;;;;5139658;27;20027;-64
2022/05/14 08:29:47;;;;;;;11.65;4.30;;;22.70;51.60;;;;;;5138708;27;20038;-64
2022/05/14 08:32:13;;;;;;;13.98;4.65;;;22.70;51.70;;;;;;5138804;27;20088;-64
2022/05/14 08:34:39;;;;;;;15.35;4.72;;;22.70;51.50;;;;;;5138862;27;20035;-64
2022/05/14 08:37:05;;;;;;;12.32;5.10;;;22.60;51.20;;;;;;5138777;27;20398;-64
2022/05/14 08:39:31;;;;;;;12.80;5.07;;;22.50;51.40;;;;;;5124157;27;20349;-64
2022/05/14 08:41:57;;;;;;;9.60;3.90;;;22.60;51.30;;;;;;5118156;28;20023;-64
2022/05/14 08:44:32;;;;;;;14.52;5.25;;;22.80;51.00;;;;;;5117912;28;20042;-64
2022/05/14 08:47:06;;;;;;;14.70;3.92;;;23.10;50.50;;;;;;5117710;27;20135;-64
2022/05/14 08:49:44;;;;;;;14.32;3.90;;;23.20;50.00;;;;;;5134099;27;20072;-64
2022/05/14 08:52:15;;;;;;;13.18;4.10;;;23.40;49.20;;;;;;5118418;27;20384;-64
2022/05/14 08:54:41;;;;;;;12.88;3.78;;;23.50;48.90;;;;;;5138006;27;20031;-64
2022/05/14 08:57:35;;;;;;;11.00;3.53;;;23.70;48.70;;;;;;5137624;27;20079;-64
2022/05/14 09:00:06;;;;;;;11.73;3.90;;;23.90;48.20;;;;;;5116956;27;20390;-64
2022/05/14 09:02:46;;;;;;;10.68;3.13;;;24.00;47.50;;;;;;5120673;27;20039;-64
2022/05/14 09:05:25;;;;;;;12.55;3.53;;;24.20;46.90;;;;;;5116825;28;20088;-64
2022/05/14 09:07:51;;;;;;;8.98;3.28;;;24.30;46.20;;;;;;5118711;27;20038;-64
2022/05/14 09:10:27;;;;;;;11.30;3.33;;;24.30;46.00;;;;;;5137885;27;20027;-64
2022/05/14 09:13:10;;;;;;;14.05;3.42;;;24.40;45.70;;;;;;5131679;27;20043;-64
2022/05/14 09:15:47;;;;;;;12.85;3.78;;;24.30;45.50;;;;;;5118536;27;20326;-64
2022/05/14 09:18:28;;;;;;;10.07;3.85;;;24.20;45.40;;;;;;5130492;27;20062;-64
2022/05/14 09:21:03;;;;;;;9.93;2.85;;;24.30;45.20;;;;;;5117358;28;20055;-63
2022/05/14 09:23:32;;;;;;;11.82;3.03;;;24.10;45.50;;;;;;5124964;27;20092;-64
2022/05/14 09:26:08;;;;;;;12.18;3.80;;;24.20;45.50;;;;;;5131163;27;20045;-63
2022/05/14 09:28:41;;;;;;;10.32;3.30;;;24.30;45.20;;;;;;5126761;27;20360;-63
2022/05/14 09:31:11;;;;;;;10.88;3.03;;;24.50;44.80;;;;;;5116325;27;20031;-64
2022/05/14 09:33:44;;;;;;;11.20;3.70;;;24.70;44.60;;;;;;5125406;27;20474;-63
2022/05/14 09:36:22;;;;;;;9.32;3.08;;;24.70;44.40;;;;;;5135806;27;20079;-63
2022/05/14 09:39:04;;;;;;;11.02;3.38;;;24.80;44.30;;;;;;5121817;27;20040;-63
2022/05/14 09:41:44;;;;;;;13.48;3.75;;;24.90;43.80;;;;;;5120351;27;20039;-64
2022/05/14 09:44:18;;;;;;;7.90;2.80;;;24.80;44.00;;;;;;5105946;27;20027;-64
2022/05/14 09:46:43;;;;;;;10.80;3.08;;;24.90;44.00;;;;;;5119423;27;20030;-63
2022/05/14 09:49:21;;;;;;;11.75;3.92;;;25.00;43.80;;;;;;5129378;27;20335;-62
2022/05/14 09:52:00;;;;;;;12.75;2.92;;;25.20;43.50;;;;;;5134506;27;20034;-63
2022/05/14 09:54:28;;;;;;;11.38;3.67;;;25.10;43.40;;;;;;5128602;27;20035;-62
2022/05/14 09:57:05;;;;;;;9.55;4.28;;;24.90;43.80;;;;;;5115307;27;20066;-62
2022/05/14 09:59:50;;;;;;;8.80;3.40;;;24.90;44.00;;;;;;5122591;27;20083;-63
2022/05/14 10:02:31;;;;;;;10.25;3.45;;;24.90;43.80;;;;;;5133106;27;20058;-63
2022/05/14 10:05:19;;;;;;;8.75;2.90;;;24.60;44.10;;;;;;5125570;27;20122;-62
2022/05/14 10:08:00;;;;;;;10.75;3.28;;;24.70;44.20;;;;;;5118656;27;20034;-63
2022/05/14 10:10:55;;;;;;;9.40;3.05;;;24.90;44.00;;;;;;5118328;27;20019;-62
2022/05/14 10:14:00;;;;;;;8.43;2.85;;;25.10;43.50;;;;;;5117154;27;20055;-62
2022/05/14 10:16:29;;;;;;;12.07;3.95;;;25.20;43.10;;;;;;5115059;28;20035;-63
2022/05/14 10:19:21;;;;;;;10.73;2.88;;;25.30;43.00;;;;;;5119558;27;20031;-62
2022/05/14 10:22:14;;;;;;;10.40;3.17;;;25.40;42.50;;;;;;5123610;27;20023;-63
2022/05/14 10:28:12;;;;;;;11.00;3.55;;;25.70;42.20;;;;;;5117950;27;20067;-63
2022/05/14 10:30:53;;;;;;;14.82;3.70;;;25.80;41.90;;;;;;5128694;27;20024;-64
2022/05/14 10:33:23;;;;;;;9.37;3.23;;;26.00;41.70;;;;;;5127007;27;20061;-63
2022/05/14 10:36:19;;;;;;;8.77;2.50;;;25.90;41.60;;;;;;5131337;27;20043;-63
2022/05/14 10:38:50;;;;;;;11.23;3.08;;;26.00;41.40;;;;;;5117665;27;20062;-63
2022/05/14 10:41:47;;;;;;;7.93;2.65;;;26.00;41.30;;;;;;5121944;27;20043;-63
2022/05/14 10:44:27;;;;;;;7.85;2.95;;;26.10;41.20;;;;;;5116724;27;20158;-63
2022/05/14 10:46:54;;;;;;;10.43;3.13;;;26.30;41.20;;;;;;5120953;27;20352;-64
2022/05/14 10:49:29;;;;;;;9.95;3.05;;;26.50;40.90;;;;;;5120535;27;20021;-63
2022/05/14 10:51:56;;;;;;;8.48;2.88;;;26.40;40.80;;;;;;5130736;27;20111;-63
2022/05/14 10:54:23;;;;;;;10.63;3.63;;;26.40;40.70;;;;;;5120338;27;20023;-64
2022/05/14 10:56:59;;;;;;;11.77;3.58;;;26.50;40.60;;;;;;5131456;27;20031;-63
2022/05/14 10:59:40;;;;;;;7.95;2.60;;;26.50;40.50;;;;;;5127230;27;20051;-64
2022/05/14 11:02:24;;;;;;;8.82;3.17;;;26.50;40.50;;;;;;5117021;27;20055;-64
2022/05/14 11:04:51;;;;;;;8.63;2.80;;;26.60;40.10;;;;;;5126300;27;20035;-64
2022/05/14 11:07:39;;;;;;;8.70;2.58;;;26.60;40.10;;;;;;5082759;28;20051;-64
2022/05/14 11:10:10;;;;;;;9.93;3.13;;;26.60;40.20;;;;;;5119003;27;20028;-64
2022/05/14 11:12:38;;;;;;;10.10;3.50;;;26.70;40.10;;;;;;5116536;27;20111;-65
2022/05/14 11:15:16;;;;;;;13.10;4.05;;;26.70;40.20;;;;;;5124273;27;20039;-64
2022/05/14 11:17:42;;;;;;;9.85;3.08;;;26.80;40.20;;;;;;5115801;28;20042;-64
2022/05/14 11:20:13;;;;;;;8.93;3.05;;;26.80;40.00;;;;;;5132549;27;20106;-64
2022/05/14 11:22:43;;;;;;;11.63;3.42;;;26.90;39.80;;;;;;5127233;27;20390;-64
2022/05/14 11:25:12;;;;;;;9.45;2.90;;;26.90;39.80;;;;;;5135363;27;20110;-64
2022/05/14 11:27:38;;;;;;;7.47;3.17;;;26.90;39.80;;;;;;5121037;27;20031;-64
2022/05/14 11:30:08;;;;;;;8.77;2.92;;;26.80;39.70;;;;;;5134946;27;20030;-64
2022/05/14 11:33:01;;;;;;;9.88;2.90;;;26.80;39.60;;;;;;5131463;27;20054;-63
2022/05/14 11:35:42;;;;;;;7.30;2.78;;;26.50;39.50;;;;;;5124151;27;20050;-63
2022/05/14 11:38:39;;;;;;;9.40;3.38;;;26.40;40.00;;;;;;5123665;27;20043;-63
2022/05/14 11:41:24;;;;;;;9.93;3.15;;;26.40;39.90;;;;;;5109274;28;20039;-64
2022/05/14 11:43:51;;;;;;;9.68;3.45;;;26.20;40.00;;;;;;5127070;27;20092;-64
2022/05/14 11:46:25;;;;;;;11.75;3.28;;;26.00;40.30;;;;;;5137014;27;20023;-66
2022/05/14 11:48:58;;;;;;;8.70;3.10;;;25.80;40.30;;;;;;5128875;27;20126;-64
2022/05/14 11:51:54;;;;;;;10.38;3.35;;;25.90;40.50;;;;;;5116928;27;20107;-65
2022/05/14 11:54:47;;;;;;;12.15;3.63;;;25.90;40.40;;;;;;5132602;27;20035;-64
2022/05/14 11:57:26;;;;;;;11.85;3.47;;;25.90;40.20;;;;;;5137404;27;20050;-65
2022/05/14 12:00:00;;;;;;;8.50;3.53;;;25.90;40.20;;;;;;5138938;27;20048;-64
2022/05/14 12:02:37;;;;;;;8.80;3.80;;;25.80;40.10;;;;;;5139644;27;20042;-64
2022/05/14 12:05:08;;;;;;;9.63;3.50;;;25.70;40.20;;;;;;5129933;27;20093;-64
2022/05/14 12:07:43;;;;;;;;;;;25.70;40.20;;;;;;5118508;28;20513;-65
2022/05/14 12:10:30;;;;;;;8.57;2.70;;;25.60;40.30;;;;;;5121598;27;19907;-65
2022/05/14 12:13:10;;;;;;;8.02;2.80;;;25.60;40.40;;;;;;5139428;27;20040;-64
2022/05/14 12:15:46;;;;;;;9.45;2.90;;;25.50;40.50;;;;;;5139022;27;20138;-65
2022/05/14 12:18:12;;;;;;;9.52;3.22;;;25.50;40.40;;;;;;5139256;27;20100;-65
2022/05/14 12:20:38;;;;;;;8.82;3.00;;;25.40;40.50;;;;;;5137727;27;20034;-64
2022/05/14 12:23:09;;;;;;;9.02;2.80;;;25.40;40.50;;;;;;5120511;27;20433;-64
2022/05/14 12:25:43;;;;;;;9.98;2.90;;;25.50;40.40;;;;;;5117263;28;20027;-64
2022/05/14 12:28:28;;;;;;;9.88;3.03;;;25.50;40.40;;;;;;5100220;28;20030;-64
2022/05/14 12:33:56;;;;;;;9.82;2.80;;;25.30;40.30;;;;;;5118469;28;20425;-64
2022/05/14 12:36:23;;;;;;;9.50;3.50;;;25.30;40.30;;;;;;5105585;27;20063;-65
2022/05/14 12:38:50;;;;;;;9.75;3.50;;;25.20;40.30;;;;;;5137305;27;20420;-64
2022/05/14 12:41:31;;;;;;;10.57;2.92;;;25.00;40.60;;;;;;5137512;27;20061;-65
2022/05/14 12:44:12;;;;;;;9.55;2.90;;;24.90;40.90;;;;;;5136825;27;20051;-64
2022/05/14 12:46:49;;;;;;;10.02;3.67;;;24.70;41.20;;;;;;5137465;27;20027;-64
2022/05/14 12:49:20;;;;;;;9.85;3.30;;;24.80;41.40;;;;;;5119093;27;20038;-64
2022/05/14 12:51:54;;;;;;;9.77;3.05;;;24.80;41.40;;;;;;5118511;28;20027;-64
2022/05/14 12:54:32;;;;;;;10.60;3.60;;;24.80;41.00;;;;;;5116964;28;20035;-64
2022/05/14 12:57:04;;;;;;;12.93;3.47;;;24.80;41.00;;;;;;5118021;28;20432;-64
2022/05/14 12:59:30;;;;;;;10.10;3.30;;;24.70;41.70;;;;;;5099959;28;20032;-64
2022/05/14 13:02:01;;;;;;;11.18;3.20;;;24.70;41.10;;;;;;5116771;28;20057;-65
2022/05/14 13:04:33;;;;;;;8.05;2.92;;;24.70;41.20;;;;;;5123640;27;20113;-64
2022/05/14 13:07:01;;;;;;;8.68;3.03;;;24.70;41.10;;;;;;5116550;27;20095;-64
2022/05/14 13:09:28;;;;;;;7.40;2.60;;;24.70;41.20;;;;;;5120614;27;20031;-64
2022/05/14 13:11:56;;;;;;;8.60;2.70;;;24.70;41.20;;;;;;5117034;27;20027;-64
2022/05/14 13:14:25;;;;;;;8.68;2.92;;;24.70;41.20;;;;;;5124564;27;20138;-64
2022/05/14 13:16:54;;;;;;;8.80;3.22;;;24.70;41.00;;;;;;5118439;27;20032;-64
2022/05/14 13:19:42;;;;;;;14.77;3.60;;;24.80;41.20;;;;;;5121420;27;20731;-64